Time;durP1;ratioP1;P1;durP2;ratioP2;P2;SDS_P1;SDS_P2;PMS_P1;PMS_P2;Temp;Humidity;BMP_temperature;BMP_pressure;BME280_temperature;BME280_humidity;BME280_pressure;Samples;Min_cycle;Max_cycle;Signal;HPM_P1;HPM_P2
2022/05/25 00:01:08;;;;;;;11.02;6.47;;;9.60;99.90;;;;;;4970219;28;20125;-67
2022/05/25 00:03:35;;;;;;;7.57;4.75;;;9.60;99.90;;;;;;4991280;28;20050;-68
2022/05/25 00:06:05;;;;;;;7.80;4.80;;;9.50;99.90;;;;;;4986862;28;20038;-68
2022/05/25 00:08:31;;;;;;;9.68;5.88;;;9.40;99.90;;;;;;4997022;28;20049;-68
2022/05/25 00:10:57;;;;;;;11.73;7.13;;;9.30;99.90;;;;;;4992205;28;20054;-69
2022/05/25 00:13:23;;;;;;;12.32;6.80;;;9.30;99.90;;;;;;4986747;28;20450;-68
2022/05/25 00:15:50;;;;;;;11.68;6.70;;;9.30;99.90;;;;;;5011466;28;20487;-67
2022/05/25 00:18:16;;;;;;;11.65;7.30;;;9.30;99.90;;;;;;4994467;28;20042;-67
2022/05/25 00:20:42;;;;;;;13.43;7.53;;;9.30;99.90;;;;;;4994588;28;20121;-67
2022/05/25 00:23:08;;;;;;;12.63;7.22;;;9.30;99.90;;;;;;4977045;28;20050;-66
2022/05/25 00:25:37;;;;;;;11.00;7.07;;;9.20;99.90;;;;;;4992613;28;20479;-66
2022/05/25 00:28:06;;;;;;;9.68;6.63;;;9.20;99.90;;;;;;4970408;28;20446;-67
2022/05/25 00:30:32;;;;;;;12.77;6.72;;;9.20;99.90;;;;;;4985337;28;20057;-67
2022/05/25 00:33:00;;;;;;;11.52;6.55;;;9.10;99.90;;;;;;4985589;28;20148;-68
2022/05/25 00:35:27;;;;;;;10.20;7.05;;;9.00;99.90;;;;;;4994703;28;20399;-69
2022/05/25 00:37:53;;;;;;;11.77;7.28;;;8.90;99.90;;;;;;5002338;28;20481;-66
2022/05/25 00:40:32;;;;;;;12.73;7.65;;;8.90;99.90;;;;;;4990890;28;20042;-67
2022/05/25 00:42:58;;;;;;;11.75;7.93;;;8.90;99.90;;;;;;4991498;28;20072;-67
2022/05/25 00:45:24;;;;;;;14.80;8.07;;;8.90;99.90;;;;;;4990982;28;20430;-67
2022/05/25 00:47:52;;;;;;;13.85;7.85;;;8.90;99.90;;;;;;4988512;28;20613;-66
2022/05/25 00:50:22;;;;;;;17.70;9.13;;;8.90;99.90;;;;;;4989249;28;20091;-66
2022/05/25 00:52:49;;;;;;;12.45;8.75;;;9.00;99.90;;;;;;4989407;28;20118;-67
2022/05/25 00:55:28;;;;;;;14.18;9.48;;;9.00;99.90;;;;;;4974799;28;20421;-66
2022/05/25 00:58:00;;;;;;;16.95;9.60;;;9.00;99.90;;;;;;4989847;28;20568;-67
2022/05/25 01:00:29;;;;;;;14.68;9.02;;;8.90;99.90;;;;;;4992886;28;20737;-69
2022/05/25 01:03:08;;;;;;;13.10;8.95;;;8.90;99.90;;;;;;4989340;28;20120;-66
2022/05/25 01:05:41;;;;;;;16.25;9.48;;;8.90;99.90;;;;;;5005036;28;20054;-68
2022/05/25 01:08:37;;;;;;;14.70;10.02;;;9.00;99.90;;;;;;4991973;28;20096;-67
2022/05/25 01:11:55;;;;;;;13.93;9.68;;;9.10;99.90;;;;;;4990540;28;20367;-67
2022/05/25 01:14:29;;;;;;;16.10;10.32;;;9.20;99.90;;;;;;4973243;28;20076;-68
2022/05/25 01:17:07;;;;;;;14.95;10.18;;;9.30;99.90;;;;;;4989600;28;20042;-66
2022/05/25 01:19:59;;;;;;;16.50;10.02;;;9.40;99.90;;;;;;4992202;28;20149;-66
2022/05/25 01:22:25;;;;;;;;;;;9.40;99.90;;;;;;4992692;28;20060;-66
2022/05/25 01:25:15;;;;;;;15.95;9.90;;;9.40;99.90;;;;;;5006815;28;20305;-67
2022/05/25 01:27:43;;;;;;;15.52;10.25;;;9.40;99.90;;;;;;5005473;28;20593;-67
2022/05/25 01:30:19;;;;;;;16.25;10.25;;;9.30;99.90;;;;;;4987515;28;20042;-66
2022/05/25 01:33:09;;;;;;;16.15;10.55;;;9.30;99.90;;;;;;5005542;28;20046;-67
2022/05/25 01:35:53;;;;;;;15.52;10.30;;;9.20;99.90;;;;;;4988520;28;20072;-69
2022/05/25 01:38:50;;;;;;;14.82;10.38;;;9.20;99.90;;;;;;4988418;28;20045;-67
2022/05/25 01:41:34;;;;;;;16.38;11.07;;;9.20;99.90;;;;;;4986136;28;20045;-66
2022/05/25 01:44:07;;;;;;;14.77;10.57;;;9.20;99.90;;;;;;4989376;28;20092;-67
2022/05/25 01:46:47;;;;;;;13.98;10.40;;;9.20;99.90;;;;;;4987175;28;20081;-69
2022/05/25 01:49:19;;;;;;;16.75;10.15;;;9.10;99.90;;;;;;4988258;28;20045;-67
2022/05/25 01:52:05;;;;;;;12.98;9.45;;;9.00;99.90;;;;;;4985225;28;20050;-67
2022/05/25 01:54:34;;;;;;;10.98;8.13;;;9.00;99.90;;;;;;4989377;28;20437;-67
2022/05/25 01:57:08;;;;;;;14.73;9.13;;;8.80;99.90;;;;;;5003016;28;20051;-66
2022/05/25 01:59:34;;;;;;;14.80;9.93;;;8.80;99.90;;;;;;4988763;28;20050;-66
2022/05/25 02:04:53;;;;;;;16.17;10.70;;;8.70;99.90;;;;;;4989747;28;20085;-66
2022/05/25 02:07:45;;;;;;;15.15;9.98;;;8.70;99.90;;;;;;4988128;28;20448;-67
2022/05/25 02:10:24;;;;;;;17.67;11.95;;;8.70;99.90;;;;;;4978902;28;20061;-67
2022/05/25 02:13:12;;;;;;;16.58;11.20;;;8.70;99.90;;;;;;4990227;28;20049;-67
2022/05/25 02:15:41;;;;;;;22.67;11.77;;;8.70;99.90;;;;;;5003985;28;20868;-67
2022/05/25 02:18:29;;;;;;;18.38;12.65;;;8.60;99.90;;;;;;4989456;28;20077;-67
2022/05/25 02:21:18;;;;;;;22.13;13.40;;;8.70;99.90;;;;;;4992896;28;20053;-67
2022/05/25 02:23:54;;;;;;;21.30;13.82;;;8.70;99.90;;;;;;4978029;28;20103;-67
2022/05/25 02:26:29;;;;;;;21.17;13.95;;;8.70;99.90;;;;;;4988803;28;20471;-67
2022/05/25 02:29:25;;;;;;;19.02;13.00;;;8.70;99.90;;;;;;4985775;28;20046;-67
2022/05/25 02:32:29;;;;;;;21.95;13.57;;;8.70;99.90;;;;;;4986757;28;20046;-68
2022/05/25 02:34:57;;;;;;;22.75;13.32;;;8.80;99.90;;;;;;4969319;28;20407;-67
2022/05/25 02:37:26;;;;;;;20.83;13.80;;;8.70;99.90;;;;;;4987074;28;20042;-67
2022/05/25 02:39:54;;;;;;;24.95;14.40;;;8.70;99.90;;;;;;4987729;28;20042;-67
2022/05/25 02:42:20;;;;;;;20.55;13.85;;;8.70;99.90;;;;;;4973302;28;20046;-69
2022/05/25 02:44:47;;;;;;;19.08;12.98;;;8.70;99.90;;;;;;4972258;28;20046;-68
2022/05/25 02:47:13;;;;;;;22.13;14.52;;;8.70;99.90;;;;;;4988600;28;20046;-66
2022/05/25 02:49:40;;;;;;;22.58;14.15;;;8.70;99.90;;;;;;4987624;28;20493;-66
2022/05/25 02:52:08;;;;;;;26.60;14.93;;;8.60;99.90;;;;;;4956835;28;20383;-68
2022/05/25 02:54:35;;;;;;;26.48;15.32;;;8.70;99.90;;;;;;5008637;28;20085;-67
2022/05/25 02:57:01;;;;;;;25.13;15.65;;;8.70;99.90;;;;;;5004944;28;20181;-69
2022/05/25 02:59:28;;;;;;;28.42;15.93;;;8.70;99.90;;;;;;4985459;28;20050;-70
2022/05/25 03:01:54;;;;;;;24.35;16.27;;;8.80;99.90;;;;;;4985573;28;20620;-66
2022/05/25 03:04:21;;;;;;;26.98;15.23;;;8.80;99.90;;;;;;4989295;28;20052;-66
2022/05/25 03:06:47;;;;;;;24.38;15.82;;;8.80;99.90;;;;;;4984672;28;20045;-67
2022/05/25 03:09:14;;;;;;;27.50;15.38;;;8.80;99.90;;;;;;4986042;28;20046;-66
2022/05/25 03:11:41;;;;;;;23.40;14.90;;;8.80;99.90;;;;;;4989113;28;20084;-67
2022/05/25 03:14:07;;;;;;;22.45;13.85;;;8.90;99.90;;;;;;4956931;28;20042;-68
2022/05/25 03:16:33;;;;;;;27.05;14.52;;;8.80;99.90;;;;;;4987341;28;20041;-68
2022/05/25 03:19:00;;;;;;;24.05;15.52;;;8.80;99.90;;;;;;4955043;28;20498;-66
2022/05/25 03:21:26;;;;;;;23.23;14.32;;;8.80;99.90;;;;;;4974700;28;20089;-66
2022/05/25 03:23:52;;;;;;;23.52;15.00;;;8.80;99.90;;;;;;4971644;28;20524;-67
2022/05/25 03:26:18;;;;;;;23.65;14.25;;;8.80;99.90;;;;;;5002255;28;20484;-66
2022/05/25 03:28:44;;;;;;;24.17;15.02;;;8.70;99.90;;;;;;4987656;28;20058;-69
2022/05/25 03:31:11;;;;;;;26.08;14.55;;;8.70;99.90;;;;;;4984893;28;20065;-66
2022/05/25 03:33:37;;;;;;;21.88;14.05;;;8.70;99.90;;;;;;4971191;28;20073;-66
2022/05/25 03:36:04;;;;;;;23.08;14.48;;;8.70;99.90;;;;;;4985544;28;20065;-66
2022/05/25 03:38:30;;;;;;;26.58;14.55;;;8.70;99.90;;;;;;4986851;28;20509;-67
2022/05/25 03:40:58;;;;;;;24.05;14.10;;;8.70;99.90;;;;;;4975197;28;20140;-67
2022/05/25 03:43:29;;;;;;;24.20;15.13;;;8.70;99.90;;;;;;4978218;28;20099;-66
2022/05/25 03:45:55;;;;;;;22.42;13.38;;;8.80;99.90;;;;;;4991935;28;20467;-67
2022/05/25 03:48:21;;;;;;;23.45;14.20;;;8.70;99.90;;;;;;4993242;28;20045;-67
2022/05/25 03:50:47;;;;;;;23.92;14.43;;;8.70;99.90;;;;;;4991128;28;20049;-67
2022/05/25 03:53:14;;;;;;;23.92;14.77;;;8.80;99.90;;;;;;4989921;28;20057;-68
2022/05/25 03:55:41;;;;;;;22.02;13.88;;;8.80;99.90;;;;;;4991832;28;20495;-67
2022/05/25 03:58:08;;;;;;;21.48;13.90;;;8.80;99.90;;;;;;4989682;28;20127;-68
2022/05/25 04:00:34;;;;;;;24.00;15.07;;;8.80;99.90;;;;;;4983167;28;20398;-67
2022/05/25 04:03:02;;;;;;;24.40;14.48;;;8.80;99.90;;;;;;5005770;28;20461;-67
2022/05/25 04:05:29;;;;;;;24.77;14.60;;;8.80;99.90;;;;;;4976498;28;20121;-66
2022/05/25 04:07:56;;;;;;;22.80;14.23;;;8.80;99.90;;;;;;4991651;28;20042;-66
2022/05/25 04:10:22;;;;;;;24.95;13.70;;;8.90;99.90;;;;;;4990599;28;20048;-67
2022/05/25 04:12:49;;;;;;;24.77;13.30;;;8.90;99.90;;;;;;4990891;28;20053;-66
2022/05/25 04:15:22;;;;;;;23.70;14.70;;;8.90;99.90;;;;;;4972397;28;20209;-67
2022/05/25 04:17:49;;;;;;;25.85;14.50;;;9.00;99.90;;;;;;5007321;28;20046;-66
2022/05/25 04:20:15;;;;;;;25.73;14.45;;;9.00;99.90;;;;;;4974150;28;20069;-67
2022/05/25 04:22:41;;;;;;;23.23;15.38;;;9.00;99.90;;;;;;4986018;28;20080;-67
2022/05/25 04:25:10;;;;;;;27.88;14.32;;;9.00;99.90;;;;;;4984091;28;20046;-68
2022/05/25 04:27:39;;;;;;;28.05;15.18;;;9.10;99.90;;;;;;4988121;28;20450;-67
2022/05/25 04:30:07;;;;;;;26.95;15.90;;;9.10;99.90;;;;;;4993678;28;20050;-67
2022/05/25 04:32:33;;;;;;;27.42;14.57;;;9.20;99.90;;;;;;4970718;28;20479;-66
2022/05/25 04:34:59;;;;;;;27.80;14.98;;;9.20;99.90;;;;;;4986439;28;20429;-67
2022/05/25 04:40:12;;;;;;;26.45;15.63;;;9.30;99.90;;;;;;4976418;28;20066;-67
2022/05/25 04:42:38;;;;;;;28.80;15.75;;;9.40;99.90;;;;;;4983744;28;20478;-67
2022/05/25 04:45:05;;;;;;;28.38;16.02;;;9.50;99.90;;;;;;4984773;28;20064;-67
2022/05/25 04:47:33;;;;;;;28.90;15.82;;;9.50;99.90;;;;;;4989452;28;20049;-68
2022/05/25 04:49:59;;;;;;;27.10;14.95;;;9.60;99.90;;;;;;4985189;28;20544;-68
2022/05/25 04:52:25;;;;;;;28.75;15.05;;;9.60;99.90;;;;;;4979451;28;20046;-66
2022/05/25 04:54:51;;;;;;;26.92;15.07;;;9.70;99.90;;;;;;4983119;28;20042;-69
2022/05/25 04:57:20;;;;;;;25.20;15.02;;;9.80;99.90;;;;;;5001657;28;20053;-66
2022/05/25 04:59:55;;;;;;;25.67;15.02;;;9.80;99.90;;;;;;4973128;28;20363;-66
2022/05/25 05:02:21;;;;;;;25.05;15.50;;;9.90;99.90;;;;;;4982096;28;20065;-67
2022/05/25 05:04:47;;;;;;;26.70;15.55;;;10.00;99.90;;;;;;4970512;28;20041;-67
2022/05/25 05:07:15;;;;;;;26.08;15.30;;;10.10;99.90;;;;;;4987426;28;20062;-69
2022/05/25 05:09:43;;;;;;;26.83;15.48;;;10.20;99.90;;;;;;4990714;28;20045;-67
2022/05/25 05:12:09;;;;;;;26.85;16.60;;;10.30;99.90;;;;;;5005715;28;20045;-67
2022/05/25 05:14:37;;;;;;;26.88;16.52;;;10.40;99.90;;;;;;4989409;28;20061;-66
2022/05/25 05:17:05;;;;;;;27.52;15.88;;;10.50;99.90;;;;;;5007833;28;20041;-67
2022/05/25 05:19:32;;;;;;;26.25;16.15;;;10.50;99.90;;;;;;4984725;28;20054;-67
2022/05/25 05:21:58;;;;;;;27.40;16.42;;;10.70;99.90;;;;;;4972655;28;20145;-68
2022/05/25 05:24:29;;;;;;;27.08;15.70;;;10.80;99.90;;;;;;4990912;28;20534;-67
2022/05/25 05:26:56;;;;;;;25.90;15.95;;;10.90;99.90;;;;;;4989063;28;20044;-66
2022/05/25 05:29:24;;;;;;;26.27;15.32;;;11.00;99.90;;;;;;4986545;28;20045;-68
2022/05/25 05:31:51;;;;;;;21.83;13.85;;;11.10;99.90;;;;;;4972028;28;20518;-67
2022/05/25 05:34:17;;;;;;;26.13;15.25;;;11.20;99.90;;;;;;4991000;28;20064;-67
2022/05/25 05:36:50;;;;;;;23.08;13.93;;;11.30;99.90;;;;;;5006232;28;20050;-69
2022/05/25 05:39:18;;;;;;;22.73;15.27;;;11.40;99.90;;;;;;4971384;28;20057;-67
2022/05/25 05:42:03;;;;;;;20.17;13.90;;;11.60;99.90;;;;;;4970369;28;20127;-67
2022/05/25 05:44:36;;;;;;;21.27;13.48;;;11.70;99.90;;;;;;4970750;28;20037;-67
2022/05/25 05:47:05;;;;;;;20.55;13.02;;;11.80;99.90;;;;;;4987578;28;20056;-66
2022/05/25 05:49:31;;;;;;;21.85;13.40;;;11.90;99.90;;;;;;4988820;28;20045;-67
2022/05/25 05:51:57;;;;;;;21.27;13.43;;;12.00;99.90;;;;;;5011010;28;20056;-68
2022/05/25 05:54:24;;;;;;;19.02;12.68;;;12.10;99.90;;;;;;4970601;28;20042;-68
2022/05/25 05:56:50;;;;;;;21.33;13.85;;;12.20;99.90;;;;;;4969405;28;20487;-67
2022/05/25 05:59:16;;;;;;;19.65;13.40;;;12.40;99.90;;;;;;4996785;28;20068;-68
2022/05/25 06:01:44;;;;;;;23.52;12.40;;;12.50;99.90;;;;;;4989526;28;20041;-69
2022/05/25 06:04:10;;;;;;;22.23;13.82;;;12.60;99.90;;;;;;4988208;28;20129;-67
2022/05/25 06:06:36;;;;;;;22.80;13.88;;;12.70;99.90;;;;;;4990445;28;20049;-69
2022/05/25 06:09:02;;;;;;;18.52;12.88;;;12.80;99.90;;;;;;4987925;28;20505;-68
2022/05/25 06:11:29;;;;;;;19.20;12.38;;;12.90;99.90;;;;;;4988031;28;20054;-67
2022/05/25 06:13:55;;;;;;;18.25;11.52;;;12.90;99.90;;;;;;4984404;28;20584;-68
2022/05/25 06:21:54;;;;;;;21.08;12.82;;;13.20;99.90;;;;;;4991547;28;20056;-67
2022/05/25 06:24:20;;;;;;;21.45;12.70;;;13.30;99.90;;;;;;4991843;28;20050;-68
2022/05/25 06:26:47;;;;;;;21.55;12.75;;;13.50;99.90;;;;;;5005151;28;20056;-68
2022/05/25 06:29:16;;;;;;;18.10;12.40;;;13.40;99.90;;;;;;4969866;28;20504;-67
2022/05/25 06:31:43;;;;;;;18.38;12.38;;;13.50;99.90;;;;;;4971109;28;20058;-68
2022/05/25 06:34:09;;;;;;;20.95;12.63;;;13.60;99.90;;;;;;4987408;28;20042;-67
2022/05/25 06:36:36;;;;;;;19.88;12.30;;;13.80;99.90;;;;;;4973140;28;20375;-67
2022/05/25 06:39:03;;;;;;;16.98;12.00;;;13.90;99.90;;;;;;4955085;28;20108;-69
2022/05/25 06:41:29;;;;;;;15.73;11.35;;;14.00;99.90;;;;;;4970712;28;20046;-67
2022/05/25 06:43:56;;;;;;;17.58;11.95;;;14.20;99.90;;;;;;4991573;28;20037;-69
2022/05/25 06:46:23;;;;;;;15.75;11.55;;;14.30;99.90;;;;;;4990174;28;20091;-70
2022/05/25 06:48:52;;;;;;;17.38;10.50;;;14.40;99.90;;;;;;5002854;28;20049;-68
2022/05/25 06:51:21;;;;;;;15.80;10.15;;;14.40;99.90;;;;;;4970582;28;20558;-68
2022/05/25 06:53:49;;;;;;;15.27;10.68;;;14.40;99.90;;;;;;4990423;28;20078;-69
2022/05/25 06:56:16;;;;;;;14.85;9.90;;;14.50;99.90;;;;;;4974932;28;20042;-70
2022/05/25 06:58:43;;;;;;;14.00;10.10;;;14.50;99.90;;;;;;4990977;28;20502;-68
2022/05/25 07:01:10;;;;;;;15.43;10.30;;;14.60;99.90;;;;;;4989162;28;20092;-70
2022/05/25 07:03:38;;;;;;;13.52;9.20;;;14.60;99.90;;;;;;4991046;28;20050;-68
2022/05/25 07:06:05;;;;;;;12.55;8.65;;;14.60;99.90;;;;;;4973208;28;20057;-68
2022/05/25 07:08:32;;;;;;;14.48;9.23;;;14.70;99.90;;;;;;4985120;28;20506;-68
2022/05/25 07:11:00;;;;;;;15.65;9.07;;;14.80;99.90;;;;;;5007215;28;20048;-67
2022/05/25 07:13:29;;;;;;;14.80;8.82;;;14.80;99.90;;;;;;4991349;28;20046;-67
2022/05/25 07:16:04;;;;;;;15.55;8.60;;;14.90;99.90;;;;;;4994984;28;20050;-66
2022/05/25 07:18:30;;;;;;;13.50;8.23;;;15.00;99.90;;;;;;4996516;28;20077;-66
2022/05/25 07:21:11;;;;;;;12.57;7.72;;;15.10;99.90;;;;;;4997395;28;20191;-69
2022/05/25 07:23:40;;;;;;;13.60;7.43;;;15.10;99.90;;;;;;4992723;28;20042;-68
2022/05/25 07:26:08;;;;;;;11.38;8.10;;;15.10;99.90;;;;;;5010067;28;20048;-74
2022/05/25 07:28:35;;;;;;;13.18;8.25;;;15.10;99.90;;;;;;4971538;28;20406;-69
2022/05/25 07:31:26;;;;;;;12.32;7.40;;;15.30;99.90;;;;;;5006761;28;20542;-70
2022/05/25 07:34:08;;;;;;;10.90;7.10;;;15.30;99.90;;;;;;5001767;28;20054;-69
2022/05/25 07:36:36;;;;;;;9.60;6.55;;;15.50;99.90;;;;;;4974461;28;20049;-70
2022/05/25 07:39:08;;;;;;;10.48;7.38;;;15.60;99.90;;;;;;4994735;28;20045;-70
2022/05/25 07:41:39;;;;;;;11.80;7.50;;;15.50;99.90;;;;;;4997021;28;20103;-70
2022/05/25 07:44:09;;;;;;;12.18;7.43;;;15.70;99.90;;;;;;4997599;28;20119;-70
2022/05/25 07:46:35;;;;;;;11.82;7.10;;;15.70;99.90;;;;;;4980949;28;20100;-69
2022/05/25 07:49:01;;;;;;;8.32;6.13;;;15.70;99.90;;;;;;4997617;28;20045;-70
2022/05/25 07:51:28;;;;;;;8.55;6.25;;;15.60;99.90;;;;;;4962448;28;20084;-70
2022/05/25 07:53:57;;;;;;;8.55;5.70;;;15.70;99.90;;;;;;5007635;28;20549;-68
2022/05/25 07:56:26;;;;;;;11.98;6.82;;;15.80;99.90;;;;;;4975942;28;20044;-68
2022/05/25 07:58:54;;;;;;;6.85;5.43;;;16.00;99.90;;;;;;4991392;28;20080;-76
2022/05/25 08:05:43;;;;;;;8.23;4.97;;;16.10;99.90;;;;;;4990490;28;20042;-72
2022/05/25 08:06:55;;;;;;;6.93;4.80;;;16.10;99.90;;;;;;5010512;28;20049;-69
2022/05/25 08:09:21;;;;;;;8.73;4.72;;;16.10;99.90;;;;;;4990285;28;20065;-68
2022/05/25 08:11:48;;;;;;;6.25;4.47;;;16.10;99.90;;;;;;4977270;28;20042;-68
2022/05/25 08:14:14;;;;;;;5.45;4.22;;;16.20;99.90;;;;;;4970703;28;20115;-69
2022/05/25 08:16:40;;;;;;;5.75;3.80;;;16.20;99.90;;;;;;4992886;28;20064;-68
2022/05/25 08:19:06;;;;;;;4.63;3.80;;;16.50;99.90;;;;;;5010134;28;20049;-70
2022/05/25 08:21:32;;;;;;;6.50;4.38;;;16.50;99.90;;;;;;4994032;28;20045;-69
2022/05/25 08:23:58;;;;;;;7.30;4.68;;;16.70;99.90;;;;;;4991623;28;20060;-67
2022/05/25 08:26:24;;;;;;;6.07;3.97;;;16.80;99.90;;;;;;4993285;28;20060;-68
2022/05/25 08:28:51;;;;;;;5.80;4.28;;;16.80;99.90;;;;;;4991547;28;20050;-69
2022/05/25 08:31:17;;;;;;;5.15;3.47;;;16.80;99.90;;;;;;4992780;28;20076;-67
2022/05/25 08:33:43;;;;;;;3.50;2.65;;;16.80;99.90;;;;;;4991938;28;20739;-68
2022/05/25 08:36:10;;;;;;;5.53;2.47;;;16.90;99.90;;;;;;4991893;28;20042;-68
2022/05/25 08:38:36;;;;;;;5.50;3.10;;;17.00;99.90;;;;;;5009522;28;20054;-68
2022/05/25 08:41:02;;;;;;;3.88;3.03;;;17.20;99.90;;;;;;4977402;28;20099;-68
2022/05/25 08:43:47;;;;;;;3.75;3.20;;;17.20;99.90;;;;;;4958263;28;20127;-70
2022/05/25 08:46:19;;;;;;;5.90;4.15;;;17.20;99.90;;;;;;4992424;28;20034;-68
2022/05/25 08:48:46;;;;;;;4.28;3.58;;;17.20;99.90;;;;;;5007489;28;20084;-69
2022/05/25 08:51:15;;;;;;;5.28;3.70;;;17.30;99.90;;;;;;5008885;28;20471;-68
2022/05/25 08:53:42;;;;;;;6.18;3.60;;;17.40;99.90;;;;;;4991924;28;20058;-68
2022/05/25 08:56:27;;;;;;;4.93;3.60;;;17.30;99.90;;;;;;4992850;28;20048;-70
2022/05/25 08:59:04;;;;;;;3.60;2.97;;;17.40;99.90;;;;;;5008651;28;20171;-67
2022/05/25 09:01:40;;;;;;;3.63;2.70;;;17.40;99.90;;;;;;4990379;28;20451;-71
2022/05/25 09:04:29;;;;;;;2.55;1.92;;;17.50;99.90;;;;;;4990947;28;20052;-73
2022/05/25 09:07:01;;;;;;;2.72;2.28;;;17.90;99.90;;;;;;4974915;28;20120;-70
2022/05/25 09:09:40;;;;;;;2.95;2.10;;;18.00;99.90;;;;;;4991377;28;20597;-72
2022/05/25 09:12:12;;;;;;;4.15;2.60;;;18.40;99.90;;;;;;4990457;28;20049;-69
2022/05/25 09:14:49;;;;;;;3.35;2.35;;;18.30;99.90;;;;;;4992825;28;20046;-70
2022/05/25 09:17:34;;;;;;;4.28;2.90;;;18.20;99.90;;;;;;4978158;28;20138;-72
2022/05/25 09:20:01;;;;;;;4.85;2.90;;;18.20;99.90;;;;;;5008544;28;20061;-70
2022/05/25 09:22:27;;;;;;;3.75;2.53;;;18.00;99.90;;;;;;5005562;28;20049;-72
2022/05/25 09:24:57;;;;;;;5.40;2.70;;;18.10;99.90;;;;;;4992932;28;20072;-70
2022/05/25 09:27:31;;;;;;;3.83;3.30;;;18.10;99.90;;;;;;4990757;28;20061;-70
2022/05/25 09:30:00;;;;;;;4.18;3.60;;;18.30;99.90;;;;;;5007217;28;20132;-74
2022/05/25 09:32:26;;;;;;;5.20;3.17;;;18.50;99.90;;;;;;4983931;28;20515;-70
2022/05/25 09:35:10;;;;;;;3.42;2.90;;;18.30;99.90;;;;;;4991546;28;20061;-70
2022/05/25 09:37:57;;;;;;;3.20;2.90;;;18.00;99.90;;;;;;4989874;28;20045;-72
2022/05/25 09:40:31;;;;;;;4.30;3.65;;;17.90;99.90;;;;;;4991274;28;20088;-70
2022/05/25 09:42:57;;;;;;;5.47;4.10;;;17.80;99.90;;;;;;4991330;28;20112;-75
2022/05/25 09:45:29;;;;;;;4.07;3.58;;;17.70;99.90;;;;;;4989510;28;20382;-72
2022/05/25 09:47:55;;;;;;;4.00;3.60;;;17.80;99.90;;;;;;4976343;28;20060;-78
2022/05/25 09:50:28;;;;;;;6.15;3.97;;;18.00;99.90;;;;;;4992790;28;20120;-77
2022/05/25 09:52:55;;;;;;;3.45;3.05;;;18.10;99.90;;;;;;4991534;28;20441;-73
2022/05/25 09:55:42;;;;;;;5.00;3.35;;;17.80;99.90;;;;;;4979281;28;20046;-71
2022/05/25 09:58:36;;;;;;;5.28;4.10;;;17.70;99.90;;;;;;4975533;28;20058;-71
2022/05/25 10:01:31;;;;;;;4.95;4.38;;;17.70;99.90;;;;;;4993060;28;20042;-72
2022/05/25 10:03:59;;;;;;;7.05;4.68;;;18.00;99.90;;;;;;4969462;28;20063;-75
2022/05/25 10:06:31;;;;;;;5.22;4.25;;;18.10;99.90;;;;;;4991845;28;20073;-69
2022/05/25 10:09:22;;;;;;;4.65;3.58;;;18.10;99.90;;;;;;4989618;28;20145;-72
2022/05/25 10:11:53;;;;;;;5.32;4.25;;;18.30;99.90;;;;;;4972441;28;20046;-69
2022/05/25 10:14:19;;;;;;;;;;;18.20;99.90;;;;;;5002935;28;20490;-68
2022/05/25 10:16:46;;;;;;;5.95;3.70;;;17.90;99.90;;;;;;4991021;28;19929;-68
2022/05/25 10:19:14;;;;;;;4.95;3.65;;;17.80;99.90;;;;;;4989904;28;20065;-67
2022/05/25 10:21:50;;;;;;;4.20;3.40;;;17.80;99.90;;;;;;4991273;28;20050;-71
2022/05/25 10:24:32;;;;;;;4.05;3.50;;;17.80;99.90;;;;;;4974785;28;20054;-72
2022/05/25 10:27:00;;;;;;;5.45;3.97;;;17.90;99.90;;;;;;5007774;28;20046;-68
2022/05/25 10:38:41;;;;;;;4.30;3.83;;;17.90;99.90;;;;;;4986732;28;20074;-68
2022/05/25 10:44:13;;;;;;;4.25;3.05;;;17.80;99.90;;;;;;4993538;28;20084;-69
2022/05/25 10:46:45;;;;;;;5.25;3.30;;;18.10;99.90;;;;;;4990355;28;20079;-68
2022/05/25 10:49:27;;;;;;;4.07;3.25;;;18.00;99.90;;;;;;5010538;28;20654;-67
2022/05/25 10:52:04;;;;;;;5.03;3.28;;;18.10;99.90;;;;;;4994762;28;20096;-69
2022/05/25 10:54:50;;;;;;;6.10;3.38;;;17.80;99.90;;;;;;4996916;28;20052;-68
2022/05/25 10:57:47;;;;;;;6.47;3.90;;;17.70;99.90;;;;;;4996125;28;20053;-69
2022/05/25 11:00:26;;;;;;;4.95;3.97;;;17.60;99.90;;;;;;5011957;28;20081;-71
2022/05/25 11:03:19;;;;;;;15.00;3.50;;;17.50;99.90;;;;;;5012488;28;20042;-67
2022/05/25 11:05:54;;;;;;;5.00;3.80;;;17.20;99.90;;;;;;4979732;28;20073;-66
2022/05/25 11:08:42;;;;;;;6.93;3.50;;;17.20;99.90;;;;;;4995199;28;20050;-68
2022/05/25 11:11:23;;;;;;;4.75;3.40;;;17.40;99.90;;;;;;4995322;28;20433;-69
2022/05/25 11:14:11;;;;;;;6.50;4.00;;;17.60;99.90;;;;;;4996554;28;20379;-69
2022/05/25 11:17:01;;;;;;;5.60;4.10;;;17.70;99.90;;;;;;4998110;28;20383;-68
2022/05/25 11:19:46;;;;;;;4.45;3.90;;;18.10;99.90;;;;;;4995893;28;20048;-70
2022/05/25 11:22:34;;;;;;;5.32;3.97;;;17.90;99.90;;;;;;5010252;28;20137;-70
2022/05/25 11:25:19;;;;;;;5.32;4.30;;;17.90;99.90;;;;;;5014409;28;20573;-67
2022/05/25 11:28:05;;;;;;;6.25;4.25;;;18.40;99.90;;;;;;4996686;28;20394;-68
2022/05/25 11:31:00;;;;;;;4.53;4.15;;;18.40;99.90;;;;;;4995943;28;20621;-68
2022/05/25 11:33:44;;;;;;;4.60;4.20;;;18.60;99.90;;;;;;5011955;28;20092;-68
2022/05/25 11:36:39;;;;;;;4.75;4.15;;;18.60;99.90;;;;;;4996442;28;20045;-69
2022/05/25 11:39:11;;;;;;;4.93;4.30;;;18.50;99.90;;;;;;4991048;28;20070;-70
2022/05/25 11:41:55;;;;;;;4.97;3.72;;;18.20;99.90;;;;;;4994132;28;20061;-69
2022/05/25 11:44:24;;;;;;;5.22;3.50;;;18.00;99.90;;;;;;4992608;28;20088;-68
2022/05/25 11:46:50;;;;;;;5.05;4.10;;;17.90;99.90;;;;;;4994611;28;20058;-70
2022/05/25 11:49:22;;;;;;;6.18;3.97;;;18.10;99.90;;;;;;4997662;28;20091;-70
2022/05/25 11:52:07;;;;;;;4.45;4.05;;;18.50;99.90;;;;;;5000062;28;20050;-70
2022/05/25 11:55:02;;;;;;;5.15;3.85;;;19.10;99.90;;;;;;4992692;28;20061;-69
2022/05/25 11:58:25;;;;;;;6.13;3.28;;;19.40;99.90;;;;;;5005517;28;20321;-68
2022/05/25 12:00:57;;;;;;;5.38;2.90;;;19.50;99.90;;;;;;4952518;28;20530;-68
2022/05/25 12:03:49;;;;;;;4.22;3.78;;;19.40;99.10;;;;;;4952939;28;20126;-68
2022/05/25 12:06:45;;;;;;;5.07;3.45;;;19.00;99.90;;;;;;4979867;28;20066;-66
2022/05/25 12:09:33;;;;;;;11.25;4.13;;;19.20;99.90;;;;;;5009492;28;20049;-69
2022/05/25 12:12:01;;;;;;;6.60;4.03;;;19.10;99.90;;;;;;5006443;28;20410;-69
2022/05/25 12:14:54;;;;;;;4.82;4.20;;;18.80;99.90;;;;;;4993591;28;20045;-72
2022/05/25 12:17:37;;;;;;;5.80;3.80;;;18.40;99.90;;;;;;4959619;28;20054;-67
2022/05/25 12:20:09;;;;;;;5.30;3.80;;;18.00;99.90;;;;;;4970205;28;20117;-73
2022/05/25 12:22:36;;;;;;;5.20;4.32;;;17.70;99.90;;;;;;4953193;28;20423;-70
2022/05/25 12:25:09;;;;;;;9.93;6.60;;;17.20;99.90;;;;;;4947959;28;20047;-70
2022/05/25 12:27:43;;;;;;;9.32;6.30;;;16.50;99.90;;;;;;4970336;28;20051;-70
2022/05/25 12:30:15;;;;;;;7.05;4.40;;;15.90;99.90;;;;;;4969148;28;20735;-72
2022/05/25 12:32:42;;;;;;;7.18;4.32;;;15.70;99.90;;;;;;4955353;28;20057;-71
2022/05/25 12:35:11;;;;;;;5.03;3.92;;;15.40;99.90;;;;;;4970264;28;20471;-71
2022/05/25 12:37:43;;;;;;;6.32;4.93;;;15.30;99.90;;;;;;4969136;28;20062;-73
2022/05/25 12:40:33;;;;;;;8.45;5.72;;;15.30;99.90;;;;;;4973582;28;20054;-70
2022/05/25 12:42:59;;;;;;;7.57;5.53;;;15.30;99.90;;;;;;4973012;28;20058;-72
2022/05/25 12:48:38;;;;;;;6.60;5.30;;;16.10;99.90;;;;;;4986806;28;20050;-72
2022/05/25 12:51:10;;;;;;;7.38;4.82;;;16.90;99.90;;;;;;4980250;28;20410;-71
2022/05/25 12:53:48;;;;;;;5.20;4.40;;;17.30;99.90;;;;;;4993590;28;20041;-71
2022/05/25 12:56:32;;;;;;;5.40;3.88;;;17.60;99.90;;;;;;4986374;28;20050;-71
2022/05/25 12:59:11;;;;;;;6.90;4.25;;;17.80;99.90;;;;;;4974888;28;20058;-73
2022/05/25 13:01:42;;;;;;;5.13;4.25;;;17.80;99.90;;;;;;4993264;28;20406;-70
2022/05/25 13:04:39;;;;;;;8.30;5.07;;;17.70;99.90;;;;;;4978095;28;20105;-71
2022/05/25 13:07:20;;;;;;;6.85;4.95;;;17.90;99.90;;;;;;4987793;28;20379;-71
2022/05/25 13:09:47;;;;;;;;;;;18.30;99.90;;;;;;5012859;28;20066;-72
2022/05/25 13:12:40;;;;;;;6.43;5.28;;;18.70;99.90;;;;;;4994942;28;19921;-72
2022/05/25 13:15:17;;;;;;;7.03;4.88;;;18.80;99.90;;;;;;4996007;28;20057;-73
2022/05/25 13:17:45;;;;;;;8.93;5.40;;;18.90;99.90;;;;;;5007492;28;20058;-72
2022/05/25 13:20:47;;;;;;;8.15;5.05;;;19.00;99.90;;;;;;4989224;28;20498;-72
2022/05/25 13:24:03;;;;;;;7.25;4.90;;;19.20;99.90;;;;;;4984690;28;20084;-72
2022/05/25 13:26:54;;;;;;;10.57;5.32;;;19.40;99.90;;;;;;4992130;28;20054;-72
2022/05/25 13:29:32;;;;;;;10.45;4.40;;;19.10;99.90;;;;;;4991273;28;20054;-72
2022/05/25 13:32:14;;;;;;;5.53;4.90;;;18.80;99.90;;;;;;4988853;28;20041;-71
2022/05/25 13:34:40;;;;;;;7.15;3.78;;;19.00;99.90;;;;;;5012391;28;20104;-72
2022/05/25 13:37:11;;;;;;;5.88;2.90;;;19.00;99.90;;;;;;4989459;28;20125;-71
2022/05/25 13:39:38;;;;;;;3.35;2.28;;;18.80;99.90;;;;;;4975744;28;20045;-73